sensor_id;sensor_type;location;lat;lon;timestamp;P1;durP1;ratioP1;P2;durP2;ratioP2
62687;SDS011;48752;51.056;17.056;2024-01-06T00:00:12;78.80;;;37.17;;
62687;SDS011;48752;51.056;17.056;2024-01-06T00:02:38;65.18;;;32.97;;
62687;SDS011;48752;51.056;17.056;2024-01-06T00:05:04;78.07;;;34.85;;
62687;SDS011;48752;51.056;17.056;2024-01-06T00:07:30;68.22;;;34.72;;
62687;SDS011;48752;51.056;17.056;2024-01-06T00:09:56;74.22;;;34.95;;
62687;SDS011;48752;51.056;17.056;2024-01-06T00:12:21;70.68;;;35.33;;
62687;SDS011;48752;51.056;17.056;2024-01-06T00:14:46;72.40;;;34.80;;
62687;SDS011;48752;51.056;17.056;2024-01-06T00:17:12;67.78;;;32.30;;
62687;SDS011;48752;51.056;17.056;2024-01-06T00:19:37;69.97;;;33.97;;
62687;SDS011;48752;51.056;17.056;2024-01-06T00:22:03;67.10;;;34.17;;
62687;SDS011;48752;51.056;17.056;2024-01-06T00:24:28;63.70;;;31.25;;
62687;SDS011;48752;51.056;17.056;2024-01-06T00:26:54;68.45;;;33.28;;
62687;SDS011;48752;51.056;17.056;2024-01-06T00:29:19;68.57;;;33.30;;
62687;SDS011;48752;51.056;17.056;2024-01-06T00:31:45;72.85;;;35.33;;
62687;SDS011;48752;51.056;17.056;2024-01-06T00:34:10;67.95;;;34.53;;
62687;SDS011;48752;51.056;17.056;2024-01-06T00:36:35;70.82;;;34.13;;
62687;SDS011;48752;51.056;17.056;2024-01-06T00:39:01;79.28;;;36.28;;
62687;SDS011;48752;51.056;17.056;2024-01-06T00:41:26;75.88;;;35.42;;
62687;SDS011;48752;51.056;17.056;2024-01-06T00:43:52;71.72;;;34.65;;
62687;SDS011;48752;51.056;17.056;2024-01-06T00:46:17;68.85;;;35.08;;
62687;SDS011;48752;51.056;17.056;2024-01-06T00:48:42;75.80;;;36.05;;
62687;SDS011;48752;51.056;17.056;2024-01-06T00:51:08;68.00;;;34.70;;
62687;SDS011;48752;51.056;17.056;2024-01-06T00:53:33;76.55;;;35.95;;
62687;SDS011;48752;51.056;17.056;2024-01-06T00:55:59;65.88;;;34.38;;
62687;SDS011;48752;51.056;17.056;2024-01-06T00:58:24;77.53;;;38.47;;
62687;SDS011;48752;51.056;17.056;2024-01-06T01:00:50;77.15;;;37.92;;
62687;SDS011;48752;51.056;17.056;2024-01-06T01:03:15;77.97;;;35.80;;
62687;SDS011;48752;51.056;17.056;2024-01-06T01:05:41;76.97;;;37.72;;
62687;SDS011;48752;51.056;17.056;2024-01-06T01:08:06;67.50;;;34.38;;
62687;SDS011;48752;51.056;17.056;2024-01-06T01:10:32;72.57;;;33.00;;
62687;SDS011;48752;51.056;17.056;2024-01-06T01:12:57;72.40;;;34.95;;
62687;SDS011;48752;51.056;17.056;2024-01-06T01:15:22;75.18;;;33.85;;
62687;SDS011;48752;51.056;17.056;2024-01-06T01:17:48;73.45;;;36.60;;
62687;SDS011;48752;51.056;17.056;2024-01-06T01:20:13;68.63;;;33.20;;
62687;SDS011;48752;51.056;17.056;2024-01-06T01:22:39;69.80;;;33.00;;
62687;SDS011;48752;51.056;17.056;2024-01-06T01:25:04;70.00;;;34.42;;
62687;SDS011;48752;51.056;17.056;2024-01-06T01:27:33;66.97;;;34.72;;
62687;SDS011;48752;51.056;17.056;2024-01-06T01:30:01;65.22;;;32.08;;
62687;SDS011;48752;51.056;17.056;2024-01-06T01:32:26;71.60;;;33.05;;
62687;SDS011;48752;51.056;17.056;2024-01-06T01:34:52;69.85;;;32.15;;
62687;SDS011;48752;51.056;17.056;2024-01-06T01:37:17;67.03;;;33.05;;
62687;SDS011;48752;51.056;17.056;2024-01-06T01:39:42;65.43;;;32.65;;
62687;SDS011;48752;51.056;17.056;2024-01-06T01:42:08;65.45;;;30.98;;
62687;SDS011;48752;51.056;17.056;2024-01-06T01:44:34;68.78;;;33.92;;
62687;SDS011;48752;51.056;17.056;2024-01-06T01:46:59;60.25;;;31.95;;
62687;SDS011;48752;51.056;17.056;2024-01-06T01:49:25;64.82;;;33.00;;
62687;SDS011;48752;51.056;17.056;2024-01-06T01:51:50;60.85;;;29.83;;
62687;SDS011;48752;51.056;17.056;2024-01-06T01:54:16;64.65;;;33.60;;
62687;SDS011;48752;51.056;17.056;2024-01-06T01:56:42;64.78;;;31.52;;
62687;SDS011;48752;51.056;17.056;2024-01-06T01:59:11;65.55;;;31.05;;
62687;SDS011;48752;51.056;17.056;2024-01-06T02:01:38;59.67;;;29.85;;
62687;SDS011;48752;51.056;17.056;2024-01-06T02:04:04;57.72;;;29.08;;
62687;SDS011;48752;51.056;17.056;2024-01-06T02:06:30;61.35;;;30.42;;
62687;SDS011;48752;51.056;17.056;2024-01-06T02:08:55;69.15;;;33.28;;
62687;SDS011;48752;51.056;17.056;2024-01-06T02:11:21;57.65;;;29.65;;
62687;SDS011;48752;51.056;17.056;2024-01-06T02:13:46;59.05;;;31.73;;
62687;SDS011;48752;51.056;17.056;2024-01-06T02:16:11;66.45;;;32.05;;
62687;SDS011;48752;51.056;17.056;2024-01-06T02:18:37;66.95;;;33.50;;
62687;SDS011;48752;51.056;17.056;2024-01-06T02:21:02;82.45;;;33.90;;
62687;SDS011;48752;51.056;17.056;2024-01-06T02:23:28;64.75;;;31.30;;
62687;SDS011;48752;51.056;17.056;2024-01-06T02:25:54;70.75;;;34.03;;
62687;SDS011;48752;51.056;17.056;2024-01-06T02:28:20;68.25;;;32.13;;
62687;SDS011;48752;51.056;17.056;2024-01-06T02:30:45;76.60;;;34.85;;
62687;SDS011;48752;51.056;17.056;2024-01-06T02:33:11;71.63;;;33.70;;
62687;SDS011;48752;51.056;17.056;2024-01-06T02:35:36;65.82;;;34.53;;
62687;SDS011;48752;51.056;17.056;2024-01-06T02:38:02;71.88;;;32.67;;
62687;SDS011;48752;51.056;17.056;2024-01-06T02:40:27;66.60;;;33.53;;
62687;SDS011;48752;51.056;17.056;2024-01-06T02:42:53;67.47;;;34.50;;
62687;SDS011;48752;51.056;17.056;2024-01-06T02:45:18;66.32;;;35.08;;
62687;SDS011;48752;51.056;17.056;2024-01-06T02:47:44;67.57;;;33.63;;
62687;SDS011;48752;51.056;17.056;2024-01-06T02:50:09;71.95;;;34.55;;
62687;SDS011;48752;51.056;17.056;2024-01-06T02:52:35;74.20;;;36.22;;
62687;SDS011;48752;51.056;17.056;2024-01-06T02:55:00;63.22;;;32.80;;
62687;SDS011;48752;51.056;17.056;2024-01-06T02:57:27;76.88;;;37.45;;
62687;SDS011;48752;51.056;17.056;2024-01-06T02:59:55;72.30;;;36.58;;
62687;SDS011;48752;51.056;17.056;2024-01-06T03:02:20;65.57;;;32.88;;
62687;SDS011;48752;51.056;17.056;2024-01-06T03:04:46;64.70;;;33.88;;
62687;SDS011;48752;51.056;17.056;2024-01-06T03:07:11;65.18;;;32.53;;
62687;SDS011;48752;51.056;17.056;2024-01-06T03:09:37;70.85;;;32.88;;
62687;SDS011;48752;51.056;17.056;2024-01-06T03:12:04;67.05;;;33.72;;
62687;SDS011;48752;51.056;17.056;2024-01-06T03:14:31;65.18;;;31.35;;
62687;SDS011;48752;51.056;17.056;2024-01-06T03:16:56;63.80;;;31.25;;
62687;SDS011;48752;51.056;17.056;2024-01-06T03:19:23;72.97;;;33.22;;
62687;SDS011;48752;51.056;17.056;2024-01-06T03:21:51;61.50;;;31.67;;
62687;SDS011;48752;51.056;17.056;2024-01-06T03:24:16;65.65;;;32.53;;
62687;SDS011;48752;51.056;17.056;2024-01-06T03:26:42;64.93;;;31.50;;
62687;SDS011;48752;51.056;17.056;2024-01-06T03:29:07;58.03;;;28.95;;
62687;SDS011;48752;51.056;17.056;2024-01-06T03:31:32;63.00;;;30.20;;
62687;SDS011;48752;51.056;17.056;2024-01-06T03:33:58;61.63;;;30.23;;
62687;SDS011;48752;51.056;17.056;2024-01-06T03:36:23;60.22;;;31.02;;
62687;SDS011;48752;51.056;17.056;2024-01-06T03:38:49;63.25;;;31.33;;
62687;SDS011;48752;51.056;17.056;2024-01-06T03:41:14;61.72;;;30.10;;
62687;SDS011;48752;51.056;17.056;2024-01-06T03:43:39;65.10;;;32.03;;
62687;SDS011;48752;51.056;17.056;2024-01-06T03:46:05;63.63;;;30.33;;
62687;SDS011;48752;51.056;17.056;2024-01-06T03:48:30;66.50;;;31.48;;
62687;SDS011;48752;51.056;17.056;2024-01-06T03:50:57;70.82;;;33.65;;
62687;SDS011;48752;51.056;17.056;2024-01-06T03:53:24;59.85;;;29.98;;
62687;SDS011;48752;51.056;17.056;2024-01-06T03:55:49;60.38;;;29.58;;
62687;SDS011;48752;51.056;17.056;2024-01-06T03:58:14;58.90;;;29.15;;
62687;SDS011;48752;51.056;17.056;2024-01-06T04:00:40;56.35;;;28.45;;
62687;SDS011;48752;51.056;17.056;2024-01-06T04:03:05;58.65;;;29.08;;
62687;SDS011;48752;51.056;17.056;2024-01-06T04:05:31;58.97;;;29.35;;
62687;SDS011;48752;51.056;17.056;2024-01-06T04:07:57;61.30;;;29.75;;
62687;SDS011;48752;51.056;17.056;2024-01-06T04:10:22;60.70;;;29.02;;
62687;SDS011;48752;51.056;17.056;2024-01-06T04:12:48;57.78;;;29.70;;
62687;SDS011;48752;51.056;17.056;2024-01-06T04:15:13;56.90;;;28.98;;
62687;SDS011;48752;51.056;17.056;2024-01-06T04:17:39;61.83;;;29.88;;
62687;SDS011;48752;51.056;17.056;2024-01-06T04:20:04;55.47;;;30.70;;
62687;SDS011;48752;51.056;17.056;2024-01-06T04:22:30;55.78;;;29.15;;
62687;SDS011;48752;51.056;17.056;2024-01-06T04:24:56;58.75;;;29.00;;
62687;SDS011;48752;51.056;17.056;2024-01-06T04:27:21;60.97;;;27.55;;
62687;SDS011;48752;51.056;17.056;2024-01-06T04:29:46;58.55;;;29.05;;
62687;SDS011;48752;51.056;17.056;2024-01-06T04:32:12;63.83;;;30.95;;
62687;SDS011;48752;51.056;17.056;2024-01-06T04:34:37;58.55;;;31.02;;
62687;SDS011;48752;51.056;17.056;2024-01-06T04:37:03;56.28;;;27.60;;
62687;SDS011;48752;51.056;17.056;2024-01-06T04:39:28;61.35;;;30.35;;
62687;SDS011;48752;51.056;17.056;2024-01-06T04:41:53;62.65;;;29.98;;
62687;SDS011;48752;51.056;17.056;2024-01-06T04:44:20;54.42;;;29.42;;
62687;SDS011;48752;51.056;17.056;2024-01-06T04:46:46;59.30;;;29.92;;
62687;SDS011;48752;51.056;17.056;2024-01-06T04:49:12;55.15;;;28.70;;
62687;SDS011;48752;51.056;17.056;2024-01-06T04:51:37;60.15;;;28.88;;
62687;SDS011;48752;51.056;17.056;2024-01-06T04:54:02;59.80;;;30.73;;
62687;SDS011;48752;51.056;17.056;2024-01-06T04:56:28;64.63;;;30.70;;
62687;SDS011;48752;51.056;17.056;2024-01-06T04:58:53;55.88;;;28.60;;
62687;SDS011;48752;51.056;17.056;2024-01-06T05:01:19;61.10;;;29.90;;
62687;SDS011;48752;51.056;17.056;2024-01-06T05:03:45;55.20;;;27.95;;
62687;SDS011;48752;51.056;17.056;2024-01-06T05:06:10;64.78;;;29.67;;
62687;SDS011;48752;51.056;17.056;2024-01-06T05:08:36;65.15;;;29.30;;
62687;SDS011;48752;51.056;17.056;2024-01-06T05:11:06;65.70;;;29.95;;
62687;SDS011;48752;51.056;17.056;2024-01-06T05:13:32;66.22;;;30.83;;
62687;SDS011;48752;51.056;17.056;2024-01-06T05:15:57;63.33;;;28.02;;
62687;SDS011;48752;51.056;17.056;2024-01-06T05:18:23;69.28;;;30.50;;
62687;SDS011;48752;51.056;17.056;2024-01-06T05:20:48;65.65;;;31.38;;
62687;SDS011;48752;51.056;17.056;2024-01-06T05:23:14;67.28;;;32.38;;
62687;SDS011;48752;51.056;17.056;2024-01-06T05:25:39;61.63;;;30.60;;
62687;SDS011;48752;51.056;17.056;2024-01-06T05:28:04;70.05;;;30.75;;
62687;SDS011;48752;51.056;17.056;2024-01-06T05:30:30;65.28;;;30.67;;
62687;SDS011;48752;51.056;17.056;2024-01-06T05:32:55;62.72;;;29.73;;
62687;SDS011;48752;51.056;17.056;2024-01-06T05:35:21;64.25;;;29.63;;
62687;SDS011;48752;51.056;17.056;2024-01-06T05:37:46;64.30;;;29.13;;
62687;SDS011;48752;51.056;17.056;2024-01-06T05:40:15;64.55;;;30.38;;
62687;SDS011;48752;51.056;17.056;2024-01-06T05:42:40;63.28;;;30.27;;
62687;SDS011;48752;51.056;17.056;2024-01-06T05:45:06;65.78;;;30.08;;
62687;SDS011;48752;51.056;17.056;2024-01-06T05:47:31;64.85;;;29.30;;
62687;SDS011;48752;51.056;17.056;2024-01-06T05:49:57;60.92;;;27.00;;
62687;SDS011;48752;51.056;17.056;2024-01-06T05:52:22;56.00;;;27.15;;
62687;SDS011;48752;51.056;17.056;2024-01-06T05:54:50;50.88;;;26.05;;
62687;SDS011;48752;51.056;17.056;2024-01-06T05:57:15;61.72;;;25.95;;
62687;SDS011;48752;51.056;17.056;2024-01-06T05:59:41;60.83;;;26.13;;
62687;SDS011;48752;51.056;17.056;2024-01-06T06:02:06;50.70;;;25.38;;
62687;SDS011;48752;51.056;17.056;2024-01-06T06:04:32;53.78;;;23.55;;
62687;SDS011;48752;51.056;17.056;2024-01-06T06:06:57;52.67;;;24.25;;
62687;SDS011;48752;51.056;17.056;2024-01-06T06:09:22;53.20;;;24.75;;
62687;SDS011;48752;51.056;17.056;2024-01-06T06:11:48;54.17;;;25.33;;
62687;SDS011;48752;51.056;17.056;2024-01-06T06:14:13;45.40;;;23.95;;
62687;SDS011;48752;51.056;17.056;2024-01-06T06:16:39;51.88;;;25.15;;
62687;SDS011;48752;51.056;17.056;2024-01-06T06:19:04;48.75;;;23.85;;
62687;SDS011;48752;51.056;17.056;2024-01-06T06:21:30;48.10;;;25.08;;
62687;SDS011;48752;51.056;17.056;2024-01-06T06:23:55;48.55;;;23.95;;
62687;SDS011;48752;51.056;17.056;2024-01-06T06:26:21;52.35;;;25.55;;
62687;SDS011;48752;51.056;17.056;2024-01-06T06:28:47;44.97;;;25.02;;
62687;SDS011;48752;51.056;17.056;2024-01-06T06:31:13;45.75;;;23.88;;
62687;SDS011;48752;51.056;17.056;2024-01-06T06:33:38;46.33;;;23.35;;
62687;SDS011;48752;51.056;17.056;2024-01-06T06:36:04;45.42;;;23.50;;
62687;SDS011;48752;51.056;17.056;2024-01-06T06:38:30;44.28;;;23.42;;
62687;SDS011;48752;51.056;17.056;2024-01-06T06:40:56;48.03;;;24.08;;
62687;SDS011;48752;51.056;17.056;2024-01-06T06:43:21;46.78;;;24.73;;
62687;SDS011;48752;51.056;17.056;2024-01-06T06:45:46;53.30;;;24.40;;
62687;SDS011;48752;51.056;17.056;2024-01-06T06:48:12;46.25;;;23.63;;
62687;SDS011;48752;51.056;17.056;2024-01-06T06:50:37;42.00;;;21.30;;
62687;SDS011;48752;51.056;17.056;2024-01-06T06:53:03;45.45;;;22.80;;
62687;SDS011;48752;51.056;17.056;2024-01-06T06:55:28;42.38;;;21.15;;
62687;SDS011;48752;51.056;17.056;2024-01-06T06:57:54;47.30;;;23.15;;
62687;SDS011;48752;51.056;17.056;2024-01-06T07:00:19;50.55;;;26.20;;
62687;SDS011;48752;51.056;17.056;2024-01-06T07:02:45;48.28;;;26.02;;
62687;SDS011;48752;51.056;17.056;2024-01-06T07:05:11;47.72;;;24.90;;
62687;SDS011;48752;51.056;17.056;2024-01-06T07:07:36;48.28;;;22.00;;
62687;SDS011;48752;51.056;17.056;2024-01-06T07:10:03;45.22;;;24.98;;
62687;SDS011;48752;51.056;17.056;2024-01-06T07:12:31;53.28;;;25.15;;
62687;SDS011;48752;51.056;17.056;2024-01-06T07:14:57;49.72;;;25.23;;
62687;SDS011;48752;51.056;17.056;2024-01-06T07:17:25;44.90;;;23.73;;
62687;SDS011;48752;51.056;17.056;2024-01-06T07:19:51;45.25;;;22.38;;
62687;SDS011;48752;51.056;17.056;2024-01-06T07:22:16;47.92;;;24.08;;
62687;SDS011;48752;51.056;17.056;2024-01-06T07:24:43;44.30;;;22.92;;
62687;SDS011;48752;51.056;17.056;2024-01-06T07:27:08;41.00;;;21.75;;
62687;SDS011;48752;51.056;17.056;2024-01-06T07:29:34;42.60;;;21.88;;
62687;SDS011;48752;51.056;17.056;2024-01-06T07:31:59;41.88;;;21.92;;
62687;SDS011;48752;51.056;17.056;2024-01-06T07:34:25;41.17;;;21.90;;
62687;SDS011;48752;51.056;17.056;2024-01-06T07:36:50;44.90;;;23.60;;
62687;SDS011;48752;51.056;17.056;2024-01-06T07:39:16;38.85;;;22.48;;
62687;SDS011;48752;51.056;17.056;2024-01-06T07:41:42;49.45;;;25.70;;
62687;SDS011;48752;51.056;17.056;2024-01-06T07:44:07;46.90;;;23.05;;
62687;SDS011;48752;51.056;17.056;2024-01-06T07:46:32;40.03;;;21.55;;
62687;SDS011;48752;51.056;17.056;2024-01-06T07:48:58;46.90;;;22.67;;
62687;SDS011;48752;51.056;17.056;2024-01-06T07:51:23;43.78;;;21.92;;
62687;SDS011;48752;51.056;17.056;2024-01-06T07:53:50;42.38;;;21.70;;
62687;SDS011;48752;51.056;17.056;2024-01-06T07:56:16;40.13;;;21.08;;
62687;SDS011;48752;51.056;17.056;2024-01-06T07:58:41;42.47;;;21.58;;
62687;SDS011;48752;51.056;17.056;2024-01-06T08:01:07;40.33;;;21.73;;
62687;SDS011;48752;51.056;17.056;2024-01-06T08:03:33;39.65;;;20.60;;
62687;SDS011;48752;51.056;17.056;2024-01-06T08:05:58;43.40;;;20.27;;
62687;SDS011;48752;51.056;17.056;2024-01-06T08:08:24;38.50;;;20.33;;
62687;SDS011;48752;51.056;17.056;2024-01-06T08:10:49;38.92;;;19.35;;
62687;SDS011;48752;51.056;17.056;2024-01-06T08:13:14;36.35;;;20.67;;
62687;SDS011;48752;51.056;17.056;2024-01-06T08:15:40;42.22;;;21.70;;
62687;SDS011;48752;51.056;17.056;2024-01-06T08:18:05;37.05;;;20.40;;
62687;SDS011;48752;51.056;17.056;2024-01-06T08:20:31;36.67;;;20.27;;
62687;SDS011;48752;51.056;17.056;2024-01-06T08:22:56;43.55;;;20.98;;
62687;SDS011;48752;51.056;17.056;2024-01-06T08:25:22;37.20;;;20.83;;
62687;SDS011;48752;51.056;17.056;2024-01-06T08:27:47;40.13;;;23.05;;
62687;SDS011;48752;51.056;17.056;2024-01-06T08:30:12;41.15;;;21.13;;
62687;SDS011;48752;51.056;17.056;2024-01-06T08:32:38;46.65;;;24.10;;
62687;SDS011;48752;51.056;17.056;2024-01-06T08:35:04;43.58;;;21.65;;
62687;SDS011;48752;51.056;17.056;2024-01-06T08:37:29;41.17;;;22.33;;
62687;SDS011;48752;51.056;17.056;2024-01-06T08:39:55;41.38;;;21.58;;
62687;SDS011;48752;51.056;17.056;2024-01-06T08:42:20;44.67;;;23.02;;
62687;SDS011;48752;51.056;17.056;2024-01-06T08:44:46;44.58;;;23.33;;
62687;SDS011;48752;51.056;17.056;2024-01-06T08:47:12;46.08;;;23.25;;
62687;SDS011;48752;51.056;17.056;2024-01-06T08:49:37;40.40;;;22.02;;
62687;SDS011;48752;51.056;17.056;2024-01-06T08:52:03;43.35;;;22.63;;
62687;SDS011;48752;51.056;17.056;2024-01-06T08:54:31;41.65;;;21.75;;
62687;SDS011;48752;51.056;17.056;2024-01-06T08:56:56;41.85;;;21.13;;
62687;SDS011;48752;51.056;17.056;2024-01-06T08:59:22;37.97;;;22.63;;
62687;SDS011;48752;51.056;17.056;2024-01-06T09:01:47;38.60;;;20.40;;
62687;SDS011;48752;51.056;17.056;2024-01-06T09:04:13;39.55;;;22.17;;
62687;SDS011;48752;51.056;17.056;2024-01-06T09:06:39;37.97;;;21.00;;
62687;SDS011;48752;51.056;17.056;2024-01-06T09:09:06;34.13;;;20.00;;
62687;SDS011;48752;51.056;17.056;2024-01-06T09:11:33;39.00;;;22.00;;
62687;SDS011;48752;51.056;17.056;2024-01-06T09:13:58;44.50;;;22.50;;
62687;SDS011;48752;51.056;17.056;2024-01-06T09:16:24;46.58;;;24.10;;
62687;SDS011;48752;51.056;17.056;2024-01-06T09:18:49;47.22;;;24.70;;
62687;SDS011;48752;51.056;17.056;2024-01-06T09:21:15;41.90;;;23.02;;
62687;SDS011;48752;51.056;17.056;2024-01-06T09:23:42;41.00;;;22.15;;
62687;SDS011;48752;51.056;17.056;2024-01-06T09:26:08;45.42;;;23.13;;
62687;SDS011;48752;51.056;17.056;2024-01-06T09:28:33;45.33;;;24.08;;
62687;SDS011;48752;51.056;17.056;2024-01-06T09:30:59;41.30;;;22.50;;
62687;SDS011;48752;51.056;17.056;2024-01-06T09:33:24;41.20;;;23.02;;
62687;SDS011;48752;51.056;17.056;2024-01-06T09:35:49;46.65;;;23.70;;
62687;SDS011;48752;51.056;17.056;2024-01-06T09:38:15;44.53;;;22.90;;
62687;SDS011;48752;51.056;17.056;2024-01-06T09:40:42;38.28;;;20.73;;
62687;SDS011;48752;51.056;17.056;2024-01-06T09:43:09;43.72;;;21.30;;
62687;SDS011;48752;51.056;17.056;2024-01-06T09:45:35;43.85;;;22.35;;
62687;SDS011;48752;51.056;17.056;2024-01-06T09:48:02;40.70;;;21.73;;
62687;SDS011;48752;51.056;17.056;2024-01-06T09:50:36;39.13;;;21.83;;
62687;SDS011;48752;51.056;17.056;2024-01-06T09:53:03;40.88;;;22.20;;
62687;SDS011;48752;51.056;17.056;2024-01-06T09:55:30;39.47;;;22.80;;
62687;SDS011;48752;51.056;17.056;2024-01-06T09:57:56;45.35;;;23.05;;
62687;SDS011;48752;51.056;17.056;2024-01-06T10:00:22;40.95;;;21.75;;
62687;SDS011;48752;51.056;17.056;2024-01-06T10:02:50;42.42;;;23.05;;
62687;SDS011;48752;51.056;17.056;2024-01-06T10:05:16;38.97;;;21.33;;
62687;SDS011;48752;51.056;17.056;2024-01-06T10:07:42;39.75;;;22.73;;
62687;SDS011;48752;51.056;17.056;2024-01-06T10:10:09;43.90;;;23.08;;
62687;SDS011;48752;51.056;17.056;2024-01-06T10:12:36;46.03;;;22.77;;
62687;SDS011;48752;51.056;17.056;2024-01-06T10:15:06;42.67;;;22.27;;
62687;SDS011;48752;51.056;17.056;2024-01-06T10:17:33;40.08;;;21.65;;
62687;SDS011;48752;51.056;17.056;2024-01-06T10:20:01;37.08;;;21.33;;
62687;SDS011;48752;51.056;17.056;2024-01-06T10:22:28;38.55;;;21.42;;
62687;SDS011;48752;51.056;17.056;2024-01-06T10:24:54;38.33;;;23.48;;
62687;SDS011;48752;51.056;17.056;2024-01-06T10:27:20;40.70;;;22.95;;
62687;SDS011;48752;51.056;17.056;2024-01-06T10:29:47;41.50;;;22.55;;
62687;SDS011;48752;51.056;17.056;2024-01-06T10:32:12;39.58;;;22.20;;
62687;SDS011;48752;51.056;17.056;2024-01-06T10:34:38;39.58;;;22.58;;
62687;SDS011;48752;51.056;17.056;2024-01-06T10:37:03;43.30;;;22.77;;
62687;SDS011;48752;51.056;17.056;2024-01-06T10:39:28;41.85;;;23.17;;
62687;SDS011;48752;51.056;17.056;2024-01-06T10:41:54;47.85;;;22.88;;
62687;SDS011;48752;51.056;17.056;2024-01-06T10:44:20;44.03;;;23.15;;
62687;SDS011;48752;51.056;17.056;2024-01-06T10:46:47;40.63;;;22.63;;
62687;SDS011;48752;51.056;17.056;2024-01-06T10:49:14;42.63;;;23.38;;
62687;SDS011;48752;51.056;17.056;2024-01-06T10:51:46;40.40;;;23.30;;
62687;SDS011;48752;51.056;17.056;2024-01-06T10:54:15;40.70;;;23.17;;
62687;SDS011;48752;51.056;17.056;2024-01-06T10:56:41;47.25;;;24.40;;
62687;SDS011;48752;51.056;17.056;2024-01-06T10:59:08;42.95;;;24.10;;
62687;SDS011;48752;51.056;17.056;2024-01-06T11:01:39;40.03;;;23.13;;
62687;SDS011;48752;51.056;17.056;2024-01-06T11:04:05;45.50;;;22.70;;
62687;SDS011;48752;51.056;17.056;2024-01-06T11:06:33;40.70;;;24.75;;
62687;SDS011;48752;51.056;17.056;2024-01-06T11:11:49;43.22;;;23.92;;
62687;SDS011;48752;51.056;17.056;2024-01-06T11:14:22;40.17;;;22.33;;
62687;SDS011;48752;51.056;17.056;2024-01-06T11:16:55;41.65;;;22.77;;
62687;SDS011;48752;51.056;17.056;2024-01-06T11:25:03;44.45;;;22.27;;
62687;SDS011;48752;51.056;17.056;2024-01-06T11:27:31;43.63;;;22.35;;
62687;SDS011;48752;51.056;17.056;2024-01-06T11:29:57;41.70;;;24.13;;
62687;SDS011;48752;51.056;17.056;2024-01-06T11:32:28;45.47;;;24.60;;
62687;SDS011;48752;51.056;17.056;2024-01-06T11:34:56;41.10;;;23.13;;
62687;SDS011;48752;51.056;17.056;2024-01-06T11:37:34;45.30;;;25.13;;
62687;SDS011;48752;51.056;17.056;2024-01-06T11:40:10;43.33;;;24.02;;
62687;SDS011;48752;51.056;17.056;2024-01-06T11:45:24;45.58;;;24.77;;
62687;SDS011;48752;51.056;17.056;2024-01-06T11:47:54;43.55;;;22.98;;
62687;SDS011;48752;51.056;17.056;2024-01-06T11:50:30;44.70;;;24.58;;
62687;SDS011;48752;51.056;17.056;2024-01-06T11:53:03;45.10;;;25.50;;
62687;SDS011;48752;51.056;17.056;2024-01-06T11:55:30;45.08;;;24.92;;
62687;SDS011;48752;51.056;17.056;2024-01-06T11:58:00;44.67;;;25.70;;
62687;SDS011;48752;51.056;17.056;2024-01-06T12:00:31;46.40;;;26.48;;
62687;SDS011;48752;51.056;17.056;2024-01-06T12:03:00;54.30;;;28.75;;
62687;SDS011;48752;51.056;17.056;2024-01-06T12:05:26;49.97;;;27.38;;
62687;SDS011;48752;51.056;17.056;2024-01-06T12:10:25;55.30;;;29.50;;
62687;SDS011;48752;51.056;17.056;2024-01-06T12:12:55;52.10;;;27.85;;
62687;SDS011;48752;51.056;17.056;2024-01-06T12:15:22;58.15;;;30.88;;
62687;SDS011;48752;51.056;17.056;2024-01-06T12:17:47;56.97;;;30.92;;
62687;SDS011;48752;51.056;17.056;2024-01-06T12:20:13;58.45;;;31.60;;
62687;SDS011;48752;51.056;17.056;2024-01-06T12:22:38;60.78;;;30.77;;
62687;SDS011;48752;51.056;17.056;2024-01-06T12:25:04;65.28;;;31.83;;
62687;SDS011;48752;51.056;17.056;2024-01-06T12:27:31;60.50;;;30.48;;
62687;SDS011;48752;51.056;17.056;2024-01-06T12:29:57;58.85;;;31.25;;
62687;SDS011;48752;51.056;17.056;2024-01-06T12:32:22;62.17;;;31.83;;
62687;SDS011;48752;51.056;17.056;2024-01-06T12:34:48;65.35;;;32.00;;
62687;SDS011;48752;51.056;17.056;2024-01-06T12:37:14;65.50;;;31.55;;
62687;SDS011;48752;51.056;17.056;2024-01-06T12:39:39;68.10;;;32.40;;
62687;SDS011;48752;51.056;17.056;2024-01-06T12:42:07;67.28;;;33.17;;
62687;SDS011;48752;51.056;17.056;2024-01-06T12:44:33;69.40;;;32.15;;
62687;SDS011;48752;51.056;17.056;2024-01-06T12:47:02;65.85;;;34.63;;
62687;SDS011;48752;51.056;17.056;2024-01-06T12:49:27;68.43;;;33.33;;
62687;SDS011;48752;51.056;17.056;2024-01-06T12:51:55;61.08;;;31.70;;
62687;SDS011;48752;51.056;17.056;2024-01-06T12:54:22;62.58;;;32.35;;
62687;SDS011;48752;51.056;17.056;2024-01-06T12:56:48;64.10;;;31.40;;
62687;SDS011;48752;51.056;17.056;2024-01-06T12:59:15;68.85;;;31.00;;
62687;SDS011;48752;51.056;17.056;2024-01-06T13:01:41;58.63;;;31.58;;
62687;SDS011;48752;51.056;17.056;2024-01-06T13:04:10;64.93;;;31.50;;
62687;SDS011;48752;51.056;17.056;2024-01-06T13:06:46;67.13;;;31.63;;
62687;SDS011;48752;51.056;17.056;2024-01-06T13:09:15;71.00;;;34.30;;
62687;SDS011;48752;51.056;17.056;2024-01-06T13:11:45;64.45;;;32.25;;
62687;SDS011;48752;51.056;17.056;2024-01-06T13:14:12;63.25;;;30.00;;
62687;SDS011;48752;51.056;17.056;2024-01-06T13:16:38;61.53;;;29.98;;
62687;SDS011;48752;51.056;17.056;2024-01-06T13:19:03;62.33;;;32.00;;
62687;SDS011;48752;51.056;17.056;2024-01-06T13:21:31;63.53;;;31.60;;
62687;SDS011;48752;51.056;17.056;2024-01-06T13:23:56;65.78;;;33.03;;
62687;SDS011;48752;51.056;17.056;2024-01-06T13:26:46;62.60;;;32.22;;
62687;SDS011;48752;51.056;17.056;2024-01-06T13:29:12;64.53;;;31.25;;
62687;SDS011;48752;51.056;17.056;2024-01-06T13:31:38;64.43;;;33.13;;
62687;SDS011;48752;51.056;17.056;2024-01-06T13:34:04;63.78;;;31.27;;
62687;SDS011;48752;51.056;17.056;2024-01-06T13:36:32;69.90;;;34.95;;
62687;SDS011;48752;51.056;17.056;2024-01-06T13:39:20;70.45;;;33.28;;
62687;SDS011;48752;51.056;17.056;2024-01-06T13:41:46;70.53;;;33.00;;
62687;SDS011;48752;51.056;17.056;2024-01-06T13:44:16;67.97;;;31.00;;
62687;SDS011;48752;51.056;17.056;2024-01-06T13:46:43;55.50;;;27.55;;
62687;SDS011;48752;51.056;17.056;2024-01-06T13:49:11;63.65;;;29.70;;
62687;SDS011;48752;51.056;17.056;2024-01-06T13:51:43;60.08;;;28.67;;
62687;SDS011;48752;51.056;17.056;2024-01-06T13:54:09;68.13;;;33.35;;
62687;SDS011;48752;51.056;17.056;2024-01-06T13:56:34;68.55;;;30.90;;
62687;SDS011;48752;51.056;17.056;2024-01-06T13:59:03;63.08;;;30.02;;
62687;SDS011;48752;51.056;17.056;2024-01-06T14:01:29;59.45;;;30.15;;
62687;SDS011;48752;51.056;17.056;2024-01-06T14:03:55;67.10;;;30.40;;
62687;SDS011;48752;51.056;17.056;2024-01-06T14:06:26;65.13;;;30.23;;
62687;SDS011;48752;51.056;17.056;2024-01-06T14:08:58;67.60;;;31.75;;
62687;SDS011;48752;51.056;17.056;2024-01-06T14:11:26;55.97;;;27.45;;
62687;SDS011;48752;51.056;17.056;2024-01-06T14:13:52;64.78;;;31.20;;
62687;SDS011;48752;51.056;17.056;2024-01-06T14:16:18;61.05;;;27.77;;